This demonstration page uses our WeatherBlox Daily Observations layout. Learn more.

38.89511, -77.03637

Hourly Observations for June 6, 2015

Temp ( °F °C ) Dew Point ( °F °C ) Humidity (%) Winds ( mph kmh ) Pressure ( in mb ) Visibility ( mi km ) Precip ( " mm )
12:52 am 00:52 Mostly Cloudy 67 19.4 62 16.7 84 84 W 5 7 29.92 1013 10 16.0934 0 0
1:52 am 01:52 Mostly Cloudy 67 19.4 62 16.7 84 84 Calm 29.91 1013 10 16.0934 0 0
2:52 am 02:52 Mostly Cloudy 66 18.9 62 16.7 87 87 SSW 5 7 29.9 1012 10 16.0934 0 0
3:52 am 03:52 Cloudy 65 18.3 61 16.1 87 87 SW 3 6 29.9 1013 10 16.0934 0 0
4:52 am 04:52 Mostly Cloudy 65 18.3 62 16.7 90 90 SSW 3 6 29.89 1012 10 16.0934 0 0
5:52 am 05:52 Mostly Cloudy 65 18.3 61 16.1 87 87 SW 3 6 29.89 1012 10 16.0934 0 0
6:52 am 06:52 Mostly Cloudy 67 19.4 62 16.7 84 84 WSW 3 6 29.9 1012 10 16.0934 0 0
7:52 am 07:52 Mostly Cloudy 69 20.6 63 17.2 81 81 Calm 29.91 1013 10 16.0934 0 0
8:52 am 08:52 Mostly Cloudy 70 21.1 63 17.2 79 79 NNW 9 15 29.93 1014 10 16.0934 0 0
9:52 am 09:52 Mostly Cloudy 76 24.4 65 18.3 69 69 N 13 20 29.94 1014 10 16.0934 0 0
10:52 am 10:52 Mostly Cloudy 78 25.6 64 17.8 62 62 N 13 20 29.95 1014 10 16.0934 0 0
11:52 am 11:52 Mostly Cloudy 80 26.7 65 18.3 60 60 N 13 20 29.96 1014 10 16.0934 0 0
12:52 pm 12:52 Mostly Cloudy 80 26.7 64 17.8 58 58 NNW 14 22 29.95 1014 10 16.0934 0 0
1:52 pm 13:52 Mostly Cloudy 83 28.3 64 17.8 53 53 N 16 26 29.94 1014 10 16.0934 0 0
2:52 pm 14:52 Mostly Cloudy 82 27.8 63 17.2 53 53 N 20 31 29.93 1014 10 16.0934 0 0
3:52 pm 15:52 Mostly Cloudy 84 28.9 63 17.2 49 49 N 14 22 29.95 1014 10 16.0934 0 0
4:52 pm 16:52 Mostly Cloudy 82 27.8 62 16.7 51 51 N 13 20 29.96 1015 10 16.0934 0 0
5:52 pm 17:52 Partly Cloudy 81 27.2 62 16.7 53 53 N 13 20 29.97 1015 10 16.0934 0 0
6:52 pm 18:52 Partly Cloudy 80 26.7 61 16.1 52 52 N 12 19 29.99 1016 10 16.0934 0 0
7:52 pm 19:52 Partly Cloudy 78 25.6 60 15.6 54 54 NNE 15 24 30 1016 10 16.0934 0 0
8:52 pm 20:52 Partly Cloudy 76 24.4 60 15.6 58 58 N 7 11 30 1016 10 16.0934 0 0
9:52 pm 21:52 Mostly Cloudy 74 23.3 62 16.7 67 67 Calm 30.03 1017 10 16.0934 0 0
10:52 pm 22:52 Partly Cloudy 72 22.2 64 17.8 76 76 S 9 15 30.06 1018 10 16.0934 0 0
11:52 pm 23:52 Partly Cloudy 71 21.7 64 17.8 79 79 S 9 15 30.07 1018 10 16.0934 0 0

Powered by AerisWeather